Airport Name : Frederick Muni

Other Name : Frederick Muni

ICAO : KFDK

IATA :

FAA : FDK

Latitude : 39.417583

Longitude : -77.374306

Country : United States

Local Date and Time : 07 Mar 2021 09:45

 

TAF (Terminal Aerodrome Forecast)

 

METAR (METeorological Aerodrome Report)

KFDK 071347Z 00000KT 10SM CLR M03/M05 A3038

KFDK 071247Z 00000KT 10SM CLR M07/M08 A3037

KFDK 071147Z 00000KT 10SM CLR M07/M07 A3035

KFDK 071135Z AUTO 00000KT 10SM CLR M07/M07 A3035 RMK AO2

KFDK 071115Z AUTO 00000KT 10SM CLR M07/M07 A3034 RMK AO2

KFDK 071055Z AUTO 00000KT 10SM CLR M06/M07 A3034 RMK AO2

To Charter a Jet Click here.